Time;durP1;ratioP1;P1;durP2;ratioP2;P2;SDS_P1;SDS_P2;PMS_P1;PMS_P2;Temp;Humidity;BMP_temperature;BMP_pressure;BME280_temperature;BME280_humidity;BME280_pressure;Samples;Min_cycle;Max_cycle;Signal;HPM_P1;HPM_P2
2020/12/17 00:00:11;;;;;;;69.47;33.63;;;;;;;8.11;64.91;101246.09;5297483;27;20125;-87
2020/12/17 00:02:38;;;;;;;70.95;37.45;;;;;;;8.24;64.42;101248.09;5296047;27;20061;-87
2020/12/17 04:58:12;;;;;;;81.47;37.58;;;;;;;8.00;67.79;101273.81;5267176;27;20085;-88
2020/12/17 05:00:41;;;;;;;82.65;38.53;;;;;;;7.99;67.75;101278.16;5295846;27;20107;-88
2020/12/17 05:03:30;;;;;;;85.78;39.15;;;;;;;8.04;67.63;101280.87;5295539;27;20065;-89
2020/12/17 05:06:03;;;;;;;86.97;43.87;;;;;;;8.12;66.95;101274.94;5297160;27;20065;-89
2020/12/17 05:08:30;;;;;;;91.07;41.30;;;;;;;7.97;67.68;101274.63;5295709;27;20438;-88
2020/12/17 05:10:56;;;;;;;88.87;39.85;;;;;;;8.14;67.04;101267.09;5295576;27;20083;-88
2020/12/17 05:13:23;;;;;;;88.53;42.55;;;;;;;8.10;67.12;101271.41;5297213;27;20078;-87
2020/12/17 05:15:50;;;;;;;87.30;43.33;;;;;;;8.07;67.26;101281.81;5298061;27;20058;-88
2020/12/17 05:18:17;;;;;;;91.63;40.42;;;;;;;8.00;67.51;101284.28;5298324;27;20556;-88
2020/12/17 05:20:43;;;;;;;88.30;40.08;;;;;;;8.04;67.40;101280.87;5298149;27;20083;-87
2020/12/17 05:23:11;;;;;;;92.78;38.88;;;;;;;8.18;66.98;101282.03;5298431;27;20112;-88
2020/12/17 05:25:38;;;;;;;77.28;37.70;;;;;;;8.13;66.89;101288.91;5297953;27;20092;-87
2020/12/17 05:28:05;;;;;;;88.62;37.38;;;;;;;8.03;67.23;101287.84;5298181;27;20069;-89
2020/12/17 05:30:33;;;;;;;82.95;38.72;;;;;;;8.07;67.42;101287.06;5298293;27;20093;-88
2020/12/17 05:33:00;;;;;;;106.90;43.10;;;;;;;8.04;67.49;101286.12;5296446;27;20132;-88
2020/12/17 05:35:38;;;;;;;80.53;37.03;;;;;;;8.17;67.23;101286.34;5298245;27;20096;-88
2020/12/17 05:38:06;;;;;;;77.20;37.97;;;;;;;8.12;67.00;101289.75;5296606;27;20412;-89
2020/12/17 05:40:41;;;;;;;85.40;39.28;;;;;;;8.13;66.88;101291.53;5297804;27;20420;-87
2020/12/17 05:43:09;;;;;;;80.70;37.63;;;;;;;7.81;68.06;101290.91;5296638;27;20116;-87
2020/12/17 05:45:37;;;;;;;86.68;40.55;;;;;;;7.96;67.44;101296.44;5296560;27;20129;-87
2020/12/17 05:48:20;;;;;;;78.95;36.33;;;;;;;7.85;67.73;101292.72;5296527;27;20053;-88
2020/12/17 05:51:00;;;;;;;82.80;37.15;;;;;;;7.93;67.66;101291.13;5296571;27;20041;-88
2020/12/17 05:53:29;;;;;;;82.18;38.75;;;;;;;7.85;67.94;101291.00;5298161;27;20125;-89
2020/12/17 05:56:01;;;;;;;78.45;36.92;;;;;;;7.89;67.73;101294.56;5296291;27;20064;-87
2020/12/17 05:58:44;;;;;;;89.55;40.38;;;;;;;7.92;67.53;101289.38;5296337;27;20135;-87
2020/12/17 06:01:18;;;;;;;78.40;36.47;;;;;;;8.07;67.14;101284.44;5296411;27;20056;-88
2020/12/17 06:03:45;;;;;;;83.80;37.00;;;;;;;7.93;67.86;101285.91;5296653;27;20471;-88
2020/12/17 07:25:56;;;;;;;68.68;29.83;;;;;;;7.60;70.30;101348.91;5276629;27;20073;-87
2020/12/17 11:55:35;;;;;;;47.58;25.45;;;;;;;8.52;66.33;101380.41;5220181;27;21874;31
2020/12/17 11:58:02;;;;;;;48.28;25.80;;;;;;;8.60;66.22;101376.22;5253355;27;20433;-86
2020/12/17 12:00:28;;;;;;;48.08;24.58;;;;;;;8.59;66.13;101370.97;5255470;27;20054;-86
2020/12/17 12:02:55;;;;;;;43.60;24.98;;;;;;;8.58;66.29;101374.41;5254287;27;20098;-87
2020/12/17 12:05:21;;;;;;;51.17;25.50;;;;;;;8.71;65.94;101376.41;5254617;27;20073;-87
2020/12/17 12:07:48;;;;;;;51.08;27.27;;;;;;;8.34;66.84;101374.81;5255108;27;20062;-86
2020/12/17 12:10:17;;;;;;;49.95;27.08;;;;;;;8.32;67.16;101382.63;5210157;27;20061;-86
2020/12/17 12:12:43;;;;;;;51.50;24.60;;;;;;;8.46;66.69;101385.53;5254688;27;20054;-86
2020/12/17 12:15:09;;;;;;;50.05;24.73;;;;;;;8.63;66.05;101383.25;5254898;27;20118;-85
2020/12/17 12:17:36;;;;;;;49.47;25.55;;;;;;;8.62;66.12;101379.75;5235023;27;20066;-85
2020/12/17 12:20:03;;;;;;;49.78;25.60;;;;;;;8.66;65.83;101382.41;5237163;27;20073;-86
2020/12/17 12:22:29;;;;;;;55.20;26.58;;;;;;;8.49;66.83;101385.59;5256754;27;20423;-85
2020/12/17 12:24:56;;;;;;;46.42;24.55;;;;;;;8.64;66.09;101387.62;5256145;27;20383;-86
2020/12/17 12:27:22;;;;;;;52.40;26.87;;;;;;;8.74;65.79;101384.31;5256190;27;20058;-85
2020/12/17 12:29:49;;;;;;;51.58;26.67;;;;;;;8.61;66.38;101379.69;5255845;27;20080;-85
2020/12/17 12:32:16;;;;;;;52.55;25.95;;;;;;;8.68;66.03;101385.94;5255714;27;20077;-86
2020/12/17 12:34:42;;;;;;;52.25;25.40;;;;;;;8.55;66.79;101384.84;5255059;27;20407;-85
2020/12/17 12:37:09;;;;;;;49.08;25.60;;;;;;;8.57;66.60;101384.00;5254599;27;20427;-85
2020/12/17 12:39:36;;;;;;;49.30;25.08;;;;;;;8.27;67.55;101386.91;5255464;27;20054;-85
2020/12/17 12:42:04;;;;;;;52.15;27.13;;;;;;;8.57;66.48;101391.88;5255851;27;20405;-83
2020/12/17 12:44:31;;;;;;;48.75;24.83;;;;;;;8.67;66.29;101390.28;5254014;27;20086;-86
2020/12/17 12:46:58;;;;;;;50.47;26.23;;;;;;;8.75;65.96;101387.81;5236109;27;20066;-84
2020/12/17 12:49:24;;;;;;;47.67;25.08;;;;;;;8.88;65.74;101392.41;5255456;27;20058;-85
2020/12/17 12:51:50;;;;;;;49.33;23.98;;;;;;;9.01;65.26;101386.53;5255438;27;20101;-85
2020/12/17 12:54:17;;;;;;;41.25;23.00;;;;;;;8.84;65.76;101390.59;5253854;27;20534;-85
2020/12/17 12:56:43;;;;;;;49.70;26.62;;;;;;;8.80;65.76;101391.41;5255360;27;20070;-85
2020/12/17 12:59:10;;;;;;;41.97;25.02;;;;;;;8.83;65.52;101394.09;5256691;27;20050;-86
2020/12/17 13:01:37;;;;;;;46.30;25.42;;;;;;;8.94;65.58;101392.53;5254971;27;20076;-86
2020/12/17 13:04:04;;;;;;;49.10;24.58;;;;;;;8.93;65.31;101382.87;5255464;27;20061;-86
2020/12/17 13:06:32;;;;;;;53.00;26.15;;;;;;;8.96;65.27;101388.16;5272711;27;20158;-86
2020/12/17 13:09:04;;;;;;;56.30;27.55;;;;;;;9.10;64.49;101383.16;5255611;27;20064;-86
2020/12/17 13:11:30;;;;;;;52.25;27.23;;;;;;;9.23;64.12;101374.62;5256526;27;20049;-86
2020/12/17 13:13:57;;;;;;;50.58;27.92;;;;;;;9.12;64.19;101381.47;5255330;27;20080;-85
2020/12/17 13:16:25;;;;;;;51.85;26.12;;;;;;;9.05;64.40;101379.56;5255771;27;20320;-86
2020/12/17 13:18:53;;;;;;;43.97;23.83;;;;;;;9.18;64.25;101370.19;5254209;27;20068;-87
2020/12/17 13:21:21;;;;;;;52.42;26.20;;;;;;;9.33;62.95;101373.03;5255136;27;20060;-87
2020/12/17 13:23:48;;;;;;;42.78;25.42;;;;;;;9.22;63.30;101372.84;5256597;27;20429;-86
2020/12/17 13:26:15;;;;;;;44.78;25.65;;;;;;;8.97;64.53;101375.94;5255788;27;20057;-85
2020/12/17 13:28:43;;;;;;;45.03;23.02;;;;;;;9.12;64.05;101370.97;5255006;27;20062;-86
2020/12/17 13:31:11;;;;;;;46.40;24.67;;;;;;;9.16;63.80;101372.78;5256129;27;20064;-86
2020/12/17 13:33:38;;;;;;;45.05;24.33;;;;;;;9.03;64.24;101386.53;5253644;27;20070;-86
2020/12/17 13:36:06;;;;;;;52.00;27.10;;;;;;;9.02;64.51;101392.63;5254854;27;20335;-86
2020/12/17 13:38:32;;;;;;;45.20;23.48;;;;;;;9.09;64.43;101394.53;5256611;27;20068;-87
2020/12/17 13:40:59;;;;;;;44.20;24.25;;;;;;;9.13;64.42;101398.06;5258011;27;20057;-87
2020/12/17 13:43:26;;;;;;;43.33;22.25;;;;;;;9.22;64.16;101408.69;5257107;27;20820;-87
2020/12/17 13:45:53;;;;;;;43.65;24.00;;;;;;;9.20;64.14;101413.91;5256560;27;20118;-87
2020/12/17 13:48:19;;;;;;;49.13;28.73;;;;;;;9.38;63.53;101408.06;5237061;27;20136;-86
2020/12/17 13:50:46;;;;;;;41.88;24.15;;;;;;;9.19;63.91;101409.53;5255118;27;20060;-85
2020/12/17 13:53:12;;;;;;;55.80;29.77;;;;;;;9.22;63.88;101406.94;5255982;27;20583;-85
2020/12/17 13:55:43;;;;;;;46.50;25.40;;;;;;;9.25;63.76;101416.59;5255412;27;20034;-86
2020/12/17 13:58:10;;;;;;;44.00;23.38;;;;;;;9.27;63.58;101407.03;5255396;27;20049;-86
2020/12/17 14:00:38;;;;;;;47.30;25.25;;;;;;;9.21;63.95;101410.44;5236570;27;20069;-84
2020/12/17 14:03:06;;;;;;;41.97;23.73;;;;;;;8.99;64.65;101408.31;5255043;27;20062;-87
2020/12/17 14:05:34;;;;;;;41.08;22.20;;;;;;;9.19;64.20;101406.91;5253827;27;20033;-86
2020/12/17 14:08:05;;;;;;;44.92;22.83;;;;;;;9.02;64.81;101413.59;5236316;27;20120;-83
2020/12/17 14:10:33;;;;;;;43.38;22.02;;;;;;;9.12;64.60;101414.62;5254960;27;20341;-87
2020/12/17 14:13:02;;;;;;;46.90;24.60;;;;;;;9.13;64.45;101416.41;5254400;27;20404;-86
2020/12/17 14:15:31;;;;;;;43.60;23.17;;;;;;;9.23;64.19;101407.81;5237835;27;20070;-87
2020/12/17 14:18:00;;;;;;;39.38;22.08;;;;;;;8.84;65.12;101412.44;5239038;27;20058;-87
2020/12/17 14:20:28;;;;;;;39.20;21.47;;;;;;;8.90;65.04;101406.41;5258397;27;20691;-87
2020/12/17 14:22:56;;;;;;;38.80;22.35;;;;;;;9.13;64.10;101414.69;5257845;27;20149;-87
2020/12/17 14:25:24;;;;;;;37.53;20.75;;;;;;;9.13;63.58;101413.78;5257283;27;20102;-88
2020/12/17 14:27:55;;;;;;;37.50;24.77;;;;;;;9.09;63.42;101412.87;5257832;27;20073;-85
2020/12/17 14:30:23;;;;;;;45.45;25.58;;;;;;;9.20;nan;101403.41;5256159;27;20321;-86
2020/12/17 14:32:49;;;;;;;39.63;22.62;;;;;;;9.03;62.86;101411.03;5254628;27;36164;-85
2020/12/17 14:35:15;;;;;;;40.10;21.42;;;;;;;9.36;61.83;101419.41;5250547;27;20117;-86
2020/12/17 14:37:42;;;;;;;37.95;21.62;;;;;;;9.46;60.87;101414.31;5235480;27;20057;-87
2020/12/17 14:40:09;;;;;;;40.35;22.90;;;;;;;9.39;61.22;101425.59;5254532;27;20085;-86
2020/12/17 14:42:36;;;;;;;40.92;22.70;;;;;;;9.24;62.22;101430.59;5254168;27;20070;-86
2020/12/17 14:45:17;;;;;;;41.30;21.48;;;;;;;9.10;62.39;101430.34;5256142;27;20068;-88
2020/12/17 14:47:45;;;;;;;33.63;20.50;;;;;;;9.09;62.67;101431.22;5234937;27;20091;-87
2020/12/17 14:50:12;;;;;;;33.17;18.70;;;;;;;9.12;62.30;101439.12;5251770;27;20122;-87
2020/12/17 14:52:41;;;;;;;34.50;20.20;;;;;;;9.21;61.56;101436.66;5270023;27;20073;-87
2020/12/17 14:55:08;;;;;;;35.13;20.65;;;;;;;9.12;61.82;101440.84;5253886;27;20116;-87
2020/12/17 14:57:35;;;;;;;34.65;20.70;;;;;;;9.13;61.92;101437.41;5254068;27;20439;-88
2020/12/17 15:00:05;;;;;;;38.15;23.67;;;;;;;8.92;62.36;101444.03;5252047;27;20078;-87
2020/12/17 15:02:32;;;;;;;47.97;33.10;;;;;;;8.85;62.41;101443.06;5271780;27;20116;-86
2020/12/17 15:05:00;;;;;;;40.08;26.95;;;;;;;8.70;63.17;101447.97;5234809;27;20546;-85
2020/12/17 15:07:26;;;;;;;42.17;26.48;;;;;;;8.73;62.84;101455.03;5254763;27;20053;-86
2020/12/17 15:09:54;;;;;;;36.20;24.35;;;;;;;8.76;62.42;101447.22;5253639;27;20062;-86
2020/12/17 15:12:20;;;;;;;35.60;26.00;;;;;;;8.55;63.29;101450.31;5254041;27;20082;-86
2020/12/17 15:14:47;;;;;;;40.58;29.25;;;;;;;8.62;63.08;101460.09;5254623;27;20080;-86
2020/12/17 15:17:13;;;;;;;48.72;33.75;;;;;;;8.52;63.69;101458.13;5237615;27;20057;-87
2020/12/17 15:19:40;;;;;;;49.80;31.17;;;;;;;8.25;64.72;101467.16;5235681;27;20585;-86
2020/12/17 15:22:07;;;;;;;40.20;28.15;;;;;;;8.48;64.65;101465.03;5234773;27;20118;-88
2020/12/17 15:24:33;;;;;;;43.13;25.25;;;;;;;8.66;63.21;101461.91;5256325;27;20061;-87
2020/12/17 15:27:00;;;;;;;38.78;25.73;;;;;;;8.63;62.91;101469.69;5254857;27;20124;-88
2020/12/17 15:29:26;;;;;;;46.72;33.78;;;;;;;8.57;63.03;101475.69;5253739;27;20653;-85
2020/12/17 15:31:53;;;;;;;44.25;29.00;;;;;;;7.70;66.79;101481.63;5234403;27;20455;-87
2020/12/17 15:34:23;;;;;;;;;;;;;;;7.57;66.51;101479.59;5235485;27;20061;-85
2020/12/17 15:36:50;;;;;;;45.12;29.75;;;;;;;7.90;65.67;101477.75;5253940;27;19991;-86
2020/12/17 15:39:16;;;;;;;36.75;23.73;;;;;;;7.99;65.34;101484.91;5253895;27;20332;-87
2020/12/17 15:41:42;;;;;;;44.80;26.58;;;;;;;7.35;67.53;101484.28;5253647;27;20073;-87
2020/12/17 15:44:09;;;;;;;51.37;31.10;;;;;;;7.65;66.62;101491.13;5234486;27;20061;-86
2020/12/17 15:46:40;;;;;;;40.00;26.75;;;;;;;7.37;67.72;101481.72;5254358;27;20408;-87
2020/12/17 15:49:07;;;;;;;38.08;23.67;;;;;;;7.74;66.10;101479.16;5253928;27;20058;-86
2020/12/17 15:51:34;;;;;;;36.90;24.50;;;;;;;8.15;64.59;101479.19;5253168;27;20084;-85
2020/12/17 15:54:00;;;;;;;45.03;28.45;;;;;;;7.99;65.26;101482.31;5254347;27;20113;-85
2020/12/17 15:56:28;;;;;;;40.28;23.67;;;;;;;7.23;67.57;101482.25;5234194;27;20120;-85
2020/12/17 15:58:55;;;;;;;38.08;24.00;;;;;;;7.85;65.08;101487.25;5254136;27;20058;-85
2020/12/17 16:01:21;;;;;;;39.55;28.52;;;;;;;7.89;65.32;101491.69;5234870;27;20062;-87
2020/12/17 16:03:48;;;;;;;46.17;28.85;;;;;;;7.51;66.18;101490.78;5253489;27;20162;-86
2020/12/17 16:06:15;;;;;;;37.90;22.15;;;;;;;7.58;66.10;101492.69;5234422;27;20380;-85
2020/12/17 16:08:46;;;;;;;;;;;;;;;7.04;67.96;101496.59;5235317;27;20430;-88
2020/12/17 16:11:14;;;;;;;42.10;26.35;;;;;;;6.99;68.55;101503.41;5254233;27;19965;-86
2020/12/17 16:13:40;;;;;;;43.78;27.45;;;;;;;7.49;66.76;101502.94;5253678;27;20125;-86
2020/12/17 16:16:20;;;;;;;46.28;26.02;;;;;;;6.87;68.89;101495.25;5254314;27;20072;-87
2020/12/17 16:18:50;;;;;;;39.25;24.10;;;;;;;7.20;67.62;101487.41;5253539;27;20089;-87
2020/12/17 16:21:16;;;;;;;43.35;26.62;;;;;;;7.74;65.50;101486.12;5234932;27;20049;-86
2020/12/17 16:23:43;;;;;;;42.85;26.35;;;;;;;7.83;65.26;101501.16;5234193;27;20080;-86
2020/12/17 16:26:10;;;;;;;55.03;33.25;;;;;;;8.07;64.32;101496.44;5234233;27;20788;-86
2020/12/17 16:28:37;;;;;;;53.50;34.65;;;;;;;7.72;65.62;101508.72;5253862;27;20111;-85
2020/12/17 16:31:04;;;;;;;54.53;33.33;;;;;;;7.65;65.92;101522.53;5254063;27;20120;-88
2020/12/17 16:33:35;;;;;;;49.67;30.77;;;;;;;7.53;66.07;101519.59;5234563;27;20124;-87
2020/12/17 16:36:06;;;;;;;51.92;32.92;;;;;;;7.25;66.80;101516.28;5235214;27;20096;-88
2020/12/17 16:38:34;;;;;;;50.78;30.90;;;;;;;7.09;68.00;101512.41;5234638;27;20401;-88
2020/12/17 16:41:01;;;;;;;38.25;22.98;;;;;;;7.12;68.03;101514.19;5234567;27;20402;-88
2020/12/17 16:43:28;;;;;;;38.25;23.33;;;;;;;6.59;69.36;101522.38;5254034;27;20600;-89
2020/12/17 16:45:54;;;;;;;40.33;24.65;;;;;;;6.42;69.92;101524.47;5234601;27;20113;-88
2020/12/17 16:48:21;;;;;;;44.65;28.17;;;;;;;7.34;66.56;101520.88;5253700;27;20054;-88
2020/12/17 16:50:47;;;;;;;47.17;27.20;;;;;;;7.05;67.87;101528.84;5253523;27;20053;-87
2020/12/17 16:53:14;;;;;;;48.67;31.52;;;;;;;7.52;66.19;101534.41;5234774;27;20178;-87
2020/12/17 16:55:41;;;;;;;39.47;24.35;;;;;;;6.86;67.82;101537.03;5253646;27;20136;-86
2020/12/17 16:58:09;;;;;;;40.20;25.55;;;;;;;6.73;68.11;101538.41;5253884;27;20075;-86
2020/12/17 17:00:39;;;;;;;40.70;25.40;;;;;;;7.07;67.65;101540.22;5253817;27;20124;-87
2020/12/17 17:03:07;;;;;;;45.92;28.25;;;;;;;6.79;67.99;101541.19;5234625;27;20143;-87
2020/12/17 17:05:34;;;;;;;45.50;25.02;;;;;;;7.27;66.67;101551.22;5253687;27;20053;-87
2020/12/17 17:08:01;;;;;;;40.97;25.20;;;;;;;7.32;66.47;101546.97;5234544;27;20109;-87
2020/12/17 17:10:31;;;;;;;30.77;19.00;;;;;;;7.13;67.08;101549.97;5235087;27;20384;-87
2020/12/17 17:12:58;;;;;;;25.48;15.35;;;;;;;6.81;67.22;101557.78;5254776;27;20065;-86
2020/12/17 17:15:25;;;;;;;31.08;17.73;;;;;;;6.57;67.74;101555.37;5254621;27;20104;-86
2020/12/17 17:17:51;;;;;;;30.42;18.62;;;;;;;7.08;66.19;101551.56;5235391;27;20053;-88
2020/12/17 17:20:19;;;;;;;35.58;19.65;;;;;;;7.27;65.71;101556.44;5254421;27;20066;-88
2020/12/17 17:22:45;;;;;;;26.05;15.73;;;;;;;7.63;64.67;101559.09;5254796;27;20072;-88
2020/12/17 17:25:12;;;;;;;32.15;18.30;;;;;;;7.68;64.56;101551.38;5235121;27;20112;-89
2020/12/17 17:27:40;;;;;;;32.22;19.20;;;;;;;7.67;64.19;101552.19;5255180;27;21176;-87
2020/12/17 17:30:07;;;;;;;33.88;20.20;;;;;;;7.50;65.31;101552.69;5270778;27;20428;-87
2020/12/17 17:32:35;;;;;;;36.65;22.70;;;;;;;6.87;67.63;101554.47;5235465;27;20062;-88
2020/12/17 17:35:02;;;;;;;35.35;21.77;;;;;;;7.61;65.01;101552.06;5254458;27;20084;-87
2020/12/17 17:37:28;;;;;;;41.08;26.12;;;;;;;7.79;64.49;101551.59;5235160;27;20054;-88
2020/12/17 17:39:55;;;;;;;32.35;21.87;;;;;;;7.84;63.97;101548.25;5235393;27;20120;-88
2020/12/17 17:42:21;;;;;;;31.02;19.85;;;;;;;7.93;63.83;101560.69;5235126;27;20497;-88
2020/12/17 17:44:48;;;;;;;30.27;19.15;;;;;;;7.85;64.03;101562.22;5270981;27;20080;-89
2020/12/17 17:47:18;;;;;;;30.17;17.90;;;;;;;7.93;63.99;101566.78;5254653;27;20061;-88
2020/12/17 17:49:45;;;;;;;34.67;19.45;;;;;;;7.75;64.37;101566.34;5253884;27;20073;-89
2020/12/17 17:52:12;;;;;;;34.20;19.67;;;;;;;7.73;64.51;101566.34;5271051;27;20081;-87
2020/12/17 17:54:39;;;;;;;28.67;19.48;;;;;;;7.74;64.07;101568.09;5254588;27;20124;-88
2020/12/17 17:57:07;;;;;;;34.95;20.23;;;;;;;7.77;64.17;101569.03;5254376;27;20030;-88
2020/12/17 17:59:33;;;;;;;34.90;19.87;;;;;;;7.52;65.15;101571.00;5254673;27;20058;-88
2020/12/17 18:02:00;;;;;;;35.90;18.83;;;;;;;7.56;64.67;101570.25;5254509;27;20075;-88
2020/12/17 18:04:26;;;;;;;32.45;20.10;;;;;;;7.51;64.86;101577.97;5235089;27;20411;-87
2020/12/17 18:06:53;;;;;;;37.92;23.65;;;;;;;7.61;64.50;101572.97;5252925;27;20187;-89
2020/12/17 18:09:20;;;;;;;38.88;24.92;;;;;;;7.79;63.77;101590.84;5254313;27;20058;-88
2020/12/17 18:11:47;;;;;;;57.62;32.65;;;;;;;7.90;63.63;101598.12;5234996;27;20062;-87
2020/12/17 18:14:14;;;;;;;45.55;29.45;;;;;;;8.05;63.21;101596.72;5235109;27;20078;-89
2020/12/17 18:16:40;;;;;;;38.88;23.62;;;;;;;8.03;63.60;101598.41;5254405;27;20096;-86
2020/12/17 18:19:12;;;;;;;42.30;24.10;;;;;;;7.97;63.58;101599.16;5235271;27;20062;-87
2020/12/17 18:21:44;;;;;;;37.92;21.80;;;;;;;8.10;63.23;101592.50;5254521;27;20053;-88
2020/12/17 18:24:14;;;;;;;36.88;22.90;;;;;;;8.28;62.59;101598.12;5253092;27;20715;-88
2020/12/17 18:26:41;;;;;;;39.72;24.65;;;;;;;8.19;62.68;101600.56;5254286;27;20487;-88
2020/12/17 18:29:08;;;;;;;38.35;24.12;;;;;;;8.20;62.75;101600.56;5254031;27;20122;-87
2020/12/17 18:31:35;;;;;;;36.25;20.83;;;;;;;8.22;62.50;101602.38;5254307;27;20080;-88
2020/12/17 18:34:04;;;;;;;38.08;22.80;;;;;;;8.07;63.02;101593.31;5235089;27;20033;-89
2020/12/17 18:36:31;;;;;;;43.13;25.10;;;;;;;7.97;63.48;101593.91;5254244;27;20404;-87
2020/12/17 18:38:57;;;;;;;39.67;23.92;;;;;;;8.07;63.07;101595.03;5235097;27;20111;-87
2020/12/17 18:41:24;;;;;;;41.17;25.12;;;;;;;8.05;62.88;101601.97;5254152;27;20712;-89
2020/12/17 18:43:50;;;;;;;35.92;25.12;;;;;;;8.06;63.05;101598.47;5254197;27;20053;-89
2020/12/17 18:46:18;;;;;;;38.95;23.35;;;;;;;7.87;63.64;101591.94;5234977;27;20077;-89
2020/12/17 18:48:45;;;;;;;37.03;22.80;;;;;;;8.00;63.23;101599.25;5254203;27;20057;-88
2020/12/17 18:51:23;;;;;;;41.13;21.65;;;;;;;7.81;64.02;101592.66;5270417;27;20061;-88
2020/12/17 18:53:51;;;;;;;34.70;18.58;;;;;;;8.07;63.26;101601.16;5254390;27;20046;-88
2020/12/17 18:56:24;;;;;;;29.67;17.75;;;;;;;7.99;63.38;101594.84;5253563;27;20413;-88
2020/12/17 18:58:55;;;;;;;36.42;19.75;;;;;;;8.08;63.23;101604.66;5254305;27;20062;-89
2020/12/17 19:01:22;;;;;;;32.47;18.73;;;;;;;8.09;63.11;101598.56;5254040;27;20073;-87
2020/12/17 19:03:49;;;;;;;29.23;17.65;;;;;;;8.10;63.23;101601.22;5254283;27;20060;-88
2020/12/17 19:06:17;;;;;;;32.05;19.20;;;;;;;7.94;63.63;101593.84;5254102;27;20408;-89
2020/12/17 19:08:44;;;;;;;34.40;19.55;;;;;;;7.97;63.51;101597.44;5234924;27;20081;-89
2020/12/17 19:11:11;;;;;;;33.20;19.30;;;;;;;8.02;63.33;101601.88;5253984;27;20092;-88
2020/12/17 19:13:39;;;;;;;31.65;17.30;;;;;;;8.08;63.04;101597.66;5253995;27;20431;-89
2020/12/17 19:16:06;;;;;;;34.55;19.17;;;;;;;8.11;63.02;101602.97;5252648;27;20070;-88
2020/12/17 19:18:33;;;;;;;29.60;17.15;;;;;;;8.09;62.97;101609.03;5254191;27;20062;-88
2020/12/17 19:21:00;;;;;;;33.90;17.80;;;;;;;8.16;62.85;101606.59;5234724;27;20091;-89
2020/12/17 19:23:27;;;;;;;36.58;20.27;;;;;;;8.19;62.68;101611.03;5234354;27;20068;-87
2020/12/17 19:25:54;;;;;;;35.88;18.33;;;;;;;8.05;62.83;101605.44;5234823;27;20067;-89
2020/12/17 19:28:20;;;;;;;30.98;17.23;;;;;;;8.06;62.83;101607.25;5234290;27;20066;-88
2020/12/17 19:30:47;;;;;;;34.90;19.52;;;;;;;8.13;62.68;101603.03;5241270;27;327304;-86
2020/12/17 19:33:14;;;;;;;34.17;19.33;;;;;;;8.01;63.01;101614.09;5252800;27;20088;-89
2020/12/17 19:35:40;;;;;;;39.08;20.15;;;;;;;7.97;63.11;101613.16;5234727;27;20444;-88
2020/12/17 19:38:07;;;;;;;31.15;17.40;;;;;;;8.01;62.85;101616.72;5234705;27;20503;-88
2020/12/17 19:40:34;;;;;;;31.83;17.55;;;;;;;8.07;62.88;101626.44;5253968;27;20450;-88
2020/12/17 19:43:00;;;;;;;26.80;17.08;;;;;;;8.05;63.05;101615.94;5253860;27;20383;-88
2020/12/17 19:45:27;;;;;;;33.55;18.85;;;;;;;8.08;62.90;101623.84;5235000;27;20054;-88
2020/12/17 19:48:09;;;;;;;28.77;16.48;;;;;;;8.13;62.76;101619.63;5237075;27;20435;-88
2020/12/17 19:50:40;;;;;;;31.12;18.02;;;;;;;7.89;63.51;101621.66;5235315;27;20069;-87
2020/12/17 19:53:06;;;;;;;32.17;18.50;;;;;;;7.88;63.59;101631.25;5252214;27;20068;-88
2020/12/17 19:55:33;;;;;;;35.10;19.12;;;;;;;8.07;63.06;101626.44;5254205;27;20374;-88
2020/12/17 19:57:59;;;;;;;33.88;18.17;;;;;;;7.99;63.10;101630.59;5253732;27;20062;-87
2020/12/17 20:00:26;;;;;;;32.00;19.48;;;;;;;8.01;63.04;101626.31;5234587;27;20061;-88
2020/12/17 20:02:52;;;;;;;34.38;19.67;;;;;;;8.17;62.58;101633.66;5159664;27;20408;-88
2020/12/17 20:05:19;;;;;;;28.38;17.10;;;;;;;8.10;62.81;101631.75;5253932;27;20069;-87
2020/12/17 20:07:45;;;;;;;29.65;17.42;;;;;;;8.13;62.81;101622.22;5253808;27;20521;-87
2020/12/17 20:10:12;;;;;;;39.75;20.62;;;;;;;8.09;63.00;101629.97;5234735;27;20065;-88
2020/12/17 20:12:39;;;;;;;34.38;17.75;;;;;;;8.20;62.64;101633.72;5253708;27;20069;-87
2020/12/17 20:15:06;;;;;;;32.67;19.23;;;;;;;8.20;62.50;101625.88;5234519;27;20053;-87
2020/12/17 20:17:32;;;;;;;36.97;20.48;;;;;;;8.18;62.52;101638.06;5234798;27;20081;-87
2020/12/17 20:20:00;;;;;;;41.25;21.17;;;;;;;8.26;62.36;101633.87;5234689;27;20058;-89
2020/12/17 20:22:27;;;;;;;27.75;17.25;;;;;;;8.22;62.45;101631.16;5172837;27;20055;-87
2020/12/17 20:24:54;;;;;;;31.65;18.95;;;;;;;8.31;62.05;101634.88;5231926;27;20058;-88
2020/12/17 20:27:20;;;;;;;40.55;23.33;;;;;;;8.27;62.25;101632.16;5235039;27;20058;-87
2020/12/17 20:29:47;;;;;;;37.97;23.12;;;;;;;8.15;62.50;101628.41;5253894;27;20175;-87
2020/12/17 20:32:13;;;;;;;39.17;24.33;;;;;;;8.17;62.37;101629.31;5253727;27;20064;-88
2020/12/17 20:34:40;;;;;;;36.92;21.08;;;;;;;8.21;62.20;101632.91;5254085;27;20058;-89
2020/12/17 20:37:06;;;;;;;34.17;20.02;;;;;;;8.23;62.02;101641.66;5253795;27;20099;-89
2020/12/17 20:39:33;;;;;;;36.95;24.02;;;;;;;8.23;62.09;101632.91;5234826;27;20128;-89
2020/12/17 20:42:01;;;;;;;38.15;21.67;;;;;;;8.08;62.59;101634.31;5254068;27;20077;-87
2020/12/17 20:44:28;;;;;;;41.90;22.60;;;;;;;8.14;62.58;101638.81;5253390;27;20557;-87
2020/12/17 20:46:56;;;;;;;37.90;22.17;;;;;;;8.06;62.72;101642.97;5234841;27;20061;-88
2020/12/17 20:49:22;;;;;;;35.92;20.23;;;;;;;8.26;62.21;101640.84;5253997;27;20081;-89
2020/12/17 20:51:49;;;;;;;34.30;19.58;;;;;;;8.25;62.24;101642.59;5253916;27;20053;-88
2020/12/17 20:54:15;;;;;;;33.13;19.35;;;;;;;8.27;62.01;101640.91;5207136;27;20060;-89
2020/12/17 20:56:53;;;;;;;33.55;19.58;;;;;;;8.23;62.16;101640.78;5144531;27;20115;-89
2020/12/17 20:59:20;;;;;;;31.27;18.55;;;;;;;8.22;62.34;101639.91;5146553;27;20059;-89
2020/12/17 21:01:48;;;;;;;29.95;17.23;;;;;;;8.26;62.41;101641.72;5146126;27;20060;-88
2020/12/17 21:04:14;;;;;;;29.80;18.85;;;;;;;8.20;62.62;101646.81;5144427;27;20139;-88
2020/12/17 21:06:52;;;;;;;31.15;18.90;;;;;;;8.06;63.12;101643.87;5144441;27;20433;-88
2020/12/17 21:09:19;;;;;;;29.85;17.70;;;;;;;8.10;63.10;101647.47;5145768;27;20060;-87
2020/12/17 21:11:46;;;;;;;35.08;19.37;;;;;;;8.23;62.70;101648.62;5145717;27;20493;-88
2020/12/17 21:14:12;;;;;;;34.90;18.98;;;;;;;8.34;62.02;101650.66;5144161;27;20122;-87
2020/12/17 21:16:39;;;;;;;39.53;20.58;;;;;;;8.20;62.42;101649.44;5145943;27;20218;-87
2020/12/17 21:19:10;;;;;;;33.88;19.15;;;;;;;8.30;62.06;101659.31;5144467;27;20114;-88
2020/12/17 21:21:38;;;;;;;32.17;17.33;;;;;;;8.34;61.74;101655.88;5144323;27;20114;-87
2020/12/17 21:24:05;;;;;;;30.50;17.40;;;;;;;8.37;61.66;101655.09;5179046;27;20055;-87
2020/12/17 21:26:33;;;;;;;29.17;17.48;;;;;;;7.80;64.12;101656.31;5161597;27;20067;-88
2020/12/17 21:29:00;;;;;;;31.87;16.98;;;;;;;7.67;64.36;101662.06;5145780;27;20110;-87
2020/12/17 21:31:26;;;;;;;34.05;18.95;;;;;;;7.97;63.23;101662.88;5145464;27;20051;-88
2020/12/17 21:33:53;;;;;;;29.67;16.80;;;;;;;7.96;63.00;101665.44;5144276;27;20067;-88
2020/12/17 21:36:20;;;;;;;32.78;18.52;;;;;;;8.10;62.57;101660.56;5145614;27;20128;-88
2020/12/17 21:38:46;;;;;;;35.78;18.10;;;;;;;8.10;62.33;101657.94;5145531;27;20085;-88
2020/12/17 21:41:13;;;;;;;30.25;17.12;;;;;;;7.63;63.90;101655.88;5144014;27;20130;-88
2020/12/17 21:43:39;;;;;;;30.95;17.77;;;;;;;7.42;65.14;101661.41;5144194;27;20142;-88
2020/12/17 21:46:07;;;;;;;33.88;16.50;;;;;;;7.69;64.66;101666.50;5162504;27;20066;-88
2020/12/17 21:48:34;;;;;;;26.85;16.58;;;;;;;7.72;64.39;101661.34;5233255;27;20096;-87
2020/12/17 21:51:01;;;;;;;29.48;16.58;;;;;;;7.79;64.57;101651.91;5233152;27;20068;-88
2020/12/17 21:53:27;;;;;;;27.60;15.63;;;;;;;7.83;64.54;101660.75;5253456;27;20069;-88
2020/12/17 21:55:53;;;;;;;30.85;16.90;;;;;;;7.74;64.75;101662.28;5234091;27;20093;-87
2020/12/17 21:58:20;;;;;;;32.22;16.65;;;;;;;7.88;64.39;101656.50;5253823;27;20206;-87